Time;durP1;ratioP1;P1;durP2;ratioP2;P2;SDS_P1;SDS_P2;PMS_P1;PMS_P2;Temp;Humidity;BMP_temperature;BMP_pressure;BME280_temperature;BME280_humidity;BME280_pressure;Samples;Min_cycle;Max_cycle;Signal;HPM_P1;HPM_P2
2023/04/24 00:01:42;;;;;;;15.70;9.60;;;9.80;99.90;;;;;;5076009;28;20028;-77
2023/04/24 00:04:10;;;;;;;12.43;8.67;;;9.80;99.90;;;;;;5076407;28;20025;-77
2023/04/24 00:06:36;;;;;;;13.30;9.30;;;9.90;99.90;;;;;;5076139;28;20048;-79
2023/04/24 00:09:03;;;;;;;13.77;9.50;;;9.80;99.90;;;;;;5074779;28;20028;-77
2023/04/24 00:11:29;;;;;;;13.80;9.47;;;9.90;99.90;;;;;;5075661;28;20434;-77
2023/04/24 00:13:56;;;;;;;13.67;9.90;;;9.90;99.90;;;;;;5058561;28;20544;-79
2023/04/24 00:16:23;;;;;;;11.97;8.07;;;10.00;99.90;;;;;;5074410;28;20372;-77
2023/04/24 00:18:48;;;;;;;13.70;8.17;;;9.80;99.90;;;;;;5076015;28;20044;-78
2023/04/24 00:21:17;;;;;;;10.20;6.13;;;9.80;99.90;;;;;;5075769;28;20028;-78
2023/04/24 00:23:43;;;;;;;8.70;4.83;;;9.90;99.90;;;;;;5075737;28;20028;-77
2023/04/24 00:26:09;;;;;;;7.80;5.07;;;9.90;99.90;;;;;;5075833;28;20056;-79
2023/04/24 00:28:35;;;;;;;6.43;3.63;;;9.90;99.90;;;;;;5075893;28;20032;-78
2023/04/24 00:31:01;;;;;;;5.57;3.43;;;9.90;99.90;;;;;;5074209;28;20052;-77
2023/04/24 00:33:26;;;;;;;5.70;3.10;;;9.90;99.90;;;;;;5074048;28;20035;-78
2023/04/24 00:35:52;;;;;;;4.20;2.70;;;9.80;99.90;;;;;;5074269;28;20043;-78
2023/04/24 00:38:18;;;;;;;4.20;2.70;;;9.80;99.90;;;;;;5057420;28;20036;-77
2023/04/24 00:40:44;;;;;;;7.10;2.50;;;9.90;99.90;;;;;;5075563;28;20044;-76
2023/04/24 00:43:10;;;;;;;4.70;2.93;;;9.90;99.90;;;;;;5075510;28;20024;-78
2023/04/24 00:45:35;;;;;;;5.53;3.60;;;9.80;99.90;;;;;;5075038;28;20028;-76
2023/04/24 00:48:02;;;;;;;4.67;2.77;;;9.90;99.90;;;;;;5075404;28;20097;-76
2023/04/24 00:50:28;;;;;;;6.07;2.47;;;9.90;99.90;;;;;;5073725;28;20020;-76
2023/04/24 00:52:54;;;;;;;7.87;3.47;;;9.80;99.90;;;;;;5075026;28;20024;-77
2023/04/24 00:55:20;;;;;;;5.87;4.20;;;9.90;99.90;;;;;;5072896;28;20147;-76
2023/04/24 00:57:48;;;;;;;7.10;4.43;;;9.90;99.90;;;;;;5073569;28;20032;-77
2023/04/24 01:00:15;;;;;;;7.73;4.90;;;9.80;99.90;;;;;;5075461;28;20017;-78
2023/04/24 01:02:45;;;;;;;9.50;5.97;;;9.90;99.90;;;;;;5073655;28;20449;-78
2023/04/24 01:05:12;;;;;;;10.27;6.47;;;9.90;99.90;;;;;;5075076;28;20423;-77
2023/04/24 01:07:40;;;;;;;10.43;6.73;;;9.90;99.90;;;;;;5073439;28;20442;-79
2023/04/24 01:10:08;;;;;;;12.57;8.43;;;9.90;99.90;;;;;;5073812;28;20392;-79
2023/04/24 01:12:34;;;;;;;18.63;11.40;;;9.90;99.90;;;;;;5074793;28;20389;-77
2023/04/24 01:15:00;;;;;;;22.07;14.03;;;9.90;99.90;;;;;;5074892;28;20044;-78
2023/04/24 01:17:25;;;;;;;23.77;15.43;;;10.00;99.90;;;;;;5074272;28;20071;-77
2023/04/24 01:19:56;;;;;;;24.23;16.50;;;9.90;99.90;;;;;;5074953;28;20024;-77
2023/04/24 01:22:22;;;;;;;29.90;18.53;;;9.90;99.90;;;;;;5074499;28;20021;-76
2023/04/24 01:24:48;;;;;;;27.23;17.37;;;9.90;99.90;;;;;;5074392;28;20032;-77
2023/04/24 01:27:14;;;;;;;27.57;18.63;;;9.90;99.90;;;;;;5074394;28;20123;-77
2023/04/24 01:29:40;;;;;;;27.57;18.90;;;9.90;99.90;;;;;;5073159;28;20032;-78
2023/04/24 01:32:06;;;;;;;30.37;20.53;;;10.00;99.90;;;;;;5072900;28;20485;-77
2023/04/24 01:34:32;;;;;;;29.10;20.10;;;10.00;99.90;;;;;;5073038;28;20012;-76
2023/04/24 01:36:58;;;;;;;31.03;20.33;;;10.00;99.90;;;;;;5074331;28;20067;-76
2023/04/24 01:39:25;;;;;;;30.57;20.13;;;10.00;99.90;;;;;;5074241;28;20507;-76
2023/04/24 01:41:51;;;;;;;29.53;20.27;;;10.00;99.90;;;;;;5074196;28;20031;-77
2023/04/24 01:44:18;;;;;;;33.47;21.33;;;10.00;99.90;;;;;;5073059;28;20028;-77
2023/04/24 01:46:44;;;;;;;34.30;21.57;;;9.90;99.90;;;;;;5074164;28;20025;-77
2023/04/24 01:49:10;;;;;;;34.77;21.97;;;10.00;99.90;;;;;;5074032;28;20468;-76
2023/04/24 01:51:36;;;;;;;32.17;20.57;;;10.00;99.90;;;;;;5073865;28;20035;-76
2023/04/24 01:54:02;;;;;;;27.97;18.23;;;10.00;99.90;;;;;;5074364;28;20099;-76
2023/04/24 01:56:30;;;;;;;29.73;17.43;;;10.00;99.90;;;;;;5073164;28;20384;-77
2023/04/24 01:58:57;;;;;;;31.53;17.10;;;9.90;99.90;;;;;;5073698;28;20025;-78
2023/04/24 02:01:24;;;;;;;32.50;19.30;;;9.90;99.90;;;;;;5073630;28;20117;-79
2023/04/24 02:03:50;;;;;;;32.63;18.73;;;9.90;99.90;;;;;;5073703;28;20049;-78
2023/04/24 02:06:15;;;;;;;33.80;20.20;;;9.90;99.90;;;;;;5073472;28;20059;-79
2023/04/24 02:08:41;;;;;;;32.33;21.10;;;9.90;99.90;;;;;;5055555;28;20021;-79
2023/04/24 02:11:09;;;;;;;33.20;21.80;;;10.00;99.90;;;;;;5072404;28;20025;-77
2023/04/24 02:13:34;;;;;;;39.30;25.00;;;10.00;99.90;;;;;;5073696;28;20025;-78
2023/04/24 02:16:00;;;;;;;43.90;28.10;;;9.90;99.90;;;;;;5072514;28;20027;-79
2023/04/24 02:18:26;;;;;;;43.30;27.73;;;9.90;99.90;;;;;;5073511;28;20041;-79
2023/04/24 02:20:52;;;;;;;42.77;28.33;;;9.90;99.90;;;;;;5056511;28;20326;-77
2023/04/24 02:23:17;;;;;;;45.40;30.23;;;9.80;99.90;;;;;;5073501;28;20032;-79
2023/04/24 02:25:43;;;;;;;47.57;30.50;;;9.90;99.90;;;;;;5072457;28;20028;-79
2023/04/24 02:28:08;;;;;;;51.00;32.23;;;9.80;99.90;;;;;;5056008;28;20051;-79
2023/04/24 02:30:34;;;;;;;46.73;30.07;;;9.80;99.90;;;;;;5073406;28;20028;-79
2023/04/24 02:33:00;;;;;;;55.13;33.87;;;9.80;99.90;;;;;;5073357;28;20027;-80
2023/04/24 02:35:25;;;;;;;54.03;32.87;;;9.80;99.90;;;;;;5055603;28;20025;-79
2023/04/24 02:37:51;;;;;;;47.27;30.63;;;9.80;99.90;;;;;;5072254;28;20037;-78
2023/04/24 02:40:17;;;;;;;51.17;32.03;;;9.70;99.90;;;;;;5073309;28;20059;-78
2023/04/24 02:42:42;;;;;;;45.90;30.43;;;9.80;99.90;;;;;;5071953;28;20404;-79
2023/04/24 02:45:08;;;;;;;43.67;28.90;;;9.80;99.90;;;;;;5073156;28;20449;-77
2023/04/24 02:47:34;;;;;;;45.47;28.17;;;9.70;99.90;;;;;;5073164;28;20119;-78
2023/04/24 02:49:59;;;;;;;47.37;29.20;;;9.80;99.90;;;;;;5055153;28;20033;-78
2023/04/24 02:52:25;;;;;;;41.93;27.77;;;9.70;99.90;;;;;;5073196;28;20028;-79
2023/04/24 02:54:51;;;;;;;45.63;29.03;;;9.70;99.90;;;;;;5069545;28;20040;-79
2023/04/24 02:57:16;;;;;;;46.93;29.60;;;9.70;99.90;;;;;;5071338;28;20067;-77
2023/04/24 02:59:42;;;;;;;48.97;28.90;;;9.70;99.90;;;;;;5072478;28;20025;-79
2023/04/24 03:02:08;;;;;;;39.80;25.73;;;9.70;99.90;;;;;;5055040;28;20086;-79
2023/04/24 03:04:33;;;;;;;42.93;26.67;;;9.70;99.90;;;;;;5071612;28;20500;-79
2023/04/24 03:06:59;;;;;;;41.70;26.73;;;9.70;99.90;;;;;;5071586;28;20033;-79
2023/04/24 03:09:25;;;;;;;46.13;26.57;;;9.80;99.90;;;;;;5071471;28;20036;-77
2023/04/24 03:11:50;;;;;;;38.33;25.07;;;9.80;99.90;;;;;;5071396;28;20461;-78
2023/04/24 03:14:16;;;;;;;44.93;26.00;;;9.80;99.90;;;;;;5072741;28;20035;-79
2023/04/24 03:16:42;;;;;;;40.87;24.67;;;9.80;99.90;;;;;;5054805;28;20029;-78
2023/04/24 03:19:08;;;;;;;35.23;23.57;;;9.80;99.90;;;;;;5074164;28;20063;-79
2023/04/24 03:21:35;;;;;;;39.43;24.97;;;9.80;99.90;;;;;;5075474;28;20048;-78
2023/04/24 03:24:01;;;;;;;41.07;26.33;;;9.80;99.90;;;;;;5075444;28;20448;-79
2023/04/24 03:26:26;;;;;;;46.00;26.10;;;9.80;99.90;;;;;;5076762;28;20029;-77
2023/04/24 03:28:52;;;;;;;39.77;25.57;;;9.90;99.90;;;;;;5058502;28;20123;-80
2023/04/24 03:31:18;;;;;;;45.33;29.53;;;9.80;99.90;;;;;;5075155;28;20115;-80
2023/04/24 03:33:44;;;;;;;46.30;29.40;;;9.80;99.90;;;;;;5075150;28;20032;-80
2023/04/24 03:36:10;;;;;;;48.30;30.33;;;9.80;99.90;;;;;;5074973;28;20025;-79
2023/04/24 03:38:35;;;;;;;46.27;30.67;;;9.80;99.90;;;;;;5076462;28;20029;-80
2023/04/24 03:41:01;;;;;;;46.93;31.10;;;9.80;99.90;;;;;;5074992;28;20553;-80
2023/04/24 03:43:27;;;;;;;53.87;34.97;;;9.80;99.90;;;;;;5075101;28;20056;-78
2023/04/24 03:45:53;;;;;;;53.57;34.90;;;9.90;99.90;;;;;;5076209;28;20055;-78
2023/04/24 03:48:18;;;;;;;61.13;36.47;;;9.70;99.90;;;;;;5058128;28;20480;-79
2023/04/24 03:50:44;;;;;;;60.30;39.27;;;9.70;99.90;;;;;;5075904;28;20476;-78
2023/04/24 03:53:10;;;;;;;57.10;39.37;;;9.70;99.90;;;;;;5074762;28;20040;-79
2023/04/24 03:55:35;;;;;;;70.90;41.47;;;9.50;99.90;;;;;;5074749;28;20490;-80
2023/04/24 03:58:01;;;;;;;68.07;43.10;;;9.60;99.90;;;;;;5076059;28;20025;-79
2023/04/24 04:00:27;;;;;;;63.17;41.37;;;9.60;99.90;;;;;;5058170;28;20111;-78
2023/04/24 04:02:53;;;;;;;63.07;41.67;;;9.60;99.90;;;;;;5075843;28;20383;-79
2023/04/24 04:05:19;;;;;;;67.30;41.93;;;9.60;99.90;;;;;;5057942;28;20029;-80
2023/04/24 04:07:44;;;;;;;70.77;41.77;;;9.60;99.90;;;;;;5075793;28;20082;-79
2023/04/24 04:10:10;;;;;;;63.37;40.60;;;9.50;99.90;;;;;;5075804;28;20473;-79
2023/04/24 04:12:36;;;;;;;59.87;41.33;;;9.50;99.90;;;;;;5075464;28;20432;-80
2023/04/24 04:15:02;;;;;;;61.60;38.77;;;9.50;99.90;;;;;;5075699;28;20103;-79
2023/04/24 04:17:27;;;;;;;58.33;38.47;;;9.50;99.90;;;;;;5075360;28;20039;-78
2023/04/24 04:19:53;;;;;;;59.63;38.20;;;9.50;99.90;;;;;;5075643;28;20024;-80
2023/04/24 04:22:19;;;;;;;59.40;38.43;;;9.50;99.90;;;;;;5074079;28;20042;-79
2023/04/24 04:24:46;;;;;;;58.70;37.60;;;9.50;99.90;;;;;;5074159;28;20036;-80
2023/04/24 04:27:12;;;;;;;53.80;36.60;;;9.50;99.90;;;;;;5074162;28;20032;-78
2023/04/24 04:29:38;;;;;;;53.20;37.33;;;9.40;99.90;;;;;;5051492;28;20511;-80
2023/04/24 04:32:05;;;;;;;56.63;36.50;;;9.40;99.90;;;;;;5073723;28;20037;-79
2023/04/24 04:34:31;;;;;;;59.17;37.27;;;9.40;99.90;;;;;;5073187;28;20024;-78
2023/04/24 04:37:00;;;;;;;52.57;35.53;;;9.40;99.90;;;;;;5074869;28;20242;-79
2023/04/24 04:39:26;;;;;;;59.53;35.93;;;9.40;99.90;;;;;;5071285;28;20073;-78
2023/04/24 04:41:52;;;;;;;54.70;35.63;;;9.40;99.90;;;;;;5069626;28;20116;-79
2023/04/24 04:44:18;;;;;;;62.70;38.40;;;9.30;99.90;;;;;;5069530;28;20477;-79
2023/04/24 04:46:44;;;;;;;58.20;35.50;;;9.40;99.90;;;;;;5053288;28;20152;-78
2023/04/24 04:49:10;;;;;;;59.53;36.67;;;9.30;99.90;;;;;;5053509;28;20060;-79
2023/04/24 04:51:36;;;;;;;57.23;35.60;;;9.30;99.90;;;;;;5070025;28;20037;-80
2023/04/24 04:54:02;;;;;;;57.30;36.07;;;9.30;99.90;;;;;;5054720;28;20033;-79
2023/04/24 04:56:27;;;;;;;58.97;36.50;;;9.20;99.90;;;;;;5054731;28;20029;-77
2023/04/24 04:58:53;;;;;;;56.90;35.97;;;9.20;99.90;;;;;;5070144;28;20535;-79
2023/04/24 05:01:19;;;;;;;57.20;34.87;;;9.20;99.90;;;;;;5070057;28;20032;-79
2023/04/24 05:03:45;;;;;;;55.60;34.03;;;9.20;99.90;;;;;;5070123;28;20033;-78
2023/04/24 05:06:10;;;;;;;58.33;36.27;;;9.20;99.90;;;;;;5053412;28;20033;-78
2023/04/24 05:08:36;;;;;;;58.13;35.37;;;9.20;99.90;;;;;;5070091;28;20041;-79
2023/04/24 05:11:01;;;;;;;58.90;32.63;;;9.20;99.90;;;;;;5069991;28;20543;-78
2023/04/24 05:13:27;;;;;;;62.73;35.77;;;9.20;99.90;;;;;;5054606;28;20399;-78
2023/04/24 05:15:53;;;;;;;52.87;33.80;;;9.20;99.90;;;;;;5053175;28;20045;-79
2023/04/24 05:18:18;;;;;;;58.33;34.13;;;9.20;99.90;;;;;;5052959;28;20056;-78
2023/04/24 05:20:44;;;;;;;61.77;35.57;;;9.20;99.90;;;;;;5069759;28;20033;-78
2023/04/24 05:23:10;;;;;;;57.43;32.13;;;9.20;99.90;;;;;;5069869;28;20029;-78
2023/04/24 05:25:36;;;;;;;49.33;29.20;;;9.20;99.90;;;;;;5069597;28;20029;-79
2023/04/24 05:28:02;;;;;;;53.00;31.40;;;9.20;99.90;;;;;;5053045;28;20500;-79
2023/04/24 05:30:28;;;;;;;49.60;29.23;;;9.20;99.90;;;;;;5069430;28;20067;-77
2023/04/24 05:32:53;;;;;;;49.07;28.70;;;9.20;99.90;;;;;;5069521;28;20130;-78
2023/04/24 05:35:19;;;;;;;47.40;27.97;;;9.20;99.90;;;;;;5054114;28;20110;-79
2023/04/24 05:37:45;;;;;;;43.63;25.37;;;9.30;99.90;;;;;;5069163;28;20396;-77
2023/04/24 05:40:11;;;;;;;49.40;28.80;;;9.20;99.90;;;;;;5052501;28;20557;-78
2023/04/24 05:42:37;;;;;;;47.43;28.57;;;9.20;99.90;;;;;;5057324;28;20060;-78
2023/04/24 05:45:03;;;;;;;46.53;28.17;;;9.20;99.90;;;;;;5072316;28;20056;-78
2023/04/24 05:47:29;;;;;;;47.03;25.00;;;9.20;99.90;;;;;;5055735;28;20040;-78
2023/04/24 05:49:55;;;;;;;44.27;25.63;;;9.30;99.90;;;;;;5073733;28;20442;-79
2023/04/24 05:52:20;;;;;;;43.47;25.30;;;9.30;99.90;;;;;;5055568;28;20032;-78
2023/04/24 05:54:46;;;;;;;37.17;22.07;;;9.30;99.90;;;;;;5072463;28;20074;-77
2023/04/24 05:57:12;;;;;;;39.33;21.13;;;9.30;99.90;;;;;;5054822;28;20029;-78
2023/04/24 05:59:41;;;;;;;34.70;20.60;;;9.40;99.90;;;;;;5054655;28;20029;-78
2023/04/24 06:02:07;;;;;;;39.77;21.47;;;9.40;99.90;;;;;;5055553;28;20035;-77
2023/04/24 06:04:33;;;;;;;36.57;21.07;;;9.40;99.90;;;;;;5071795;28;20028;-78
2023/04/24 06:06:59;;;;;;;37.67;20.30;;;9.40;99.90;;;;;;5072013;28;20024;-78
2023/04/24 06:09:25;;;;;;;35.90;20.23;;;9.40;99.90;;;;;;5055381;28;20039;-79
2023/04/24 06:11:53;;;;;;;35.23;19.87;;;9.40;99.90;;;;;;5071685;28;20029;-79
2023/04/24 06:14:19;;;;;;;30.53;17.73;;;9.50;99.90;;;;;;5071564;28;20021;-77
2023/04/24 06:16:45;;;;;;;30.00;17.73;;;9.50;99.90;;;;;;5071740;28;20033;-78
2023/04/24 06:19:11;;;;;;;32.03;18.13;;;9.60;99.90;;;;;;5071866;28;20040;-78
2023/04/24 06:21:36;;;;;;;26.40;16.33;;;9.60;99.90;;;;;;5055496;28;20468;-78
2023/04/24 06:24:04;;;;;;;25.30;15.70;;;9.70;99.90;;;;;;5055384;28;20125;-78
2023/04/24 06:26:29;;;;;;;32.87;16.83;;;9.70;99.90;;;;;;5071717;28;20032;-78
2023/04/24 06:28:55;;;;;;;28.80;17.03;;;9.70;99.90;;;;;;5072117;28;20389;-78
2023/04/24 06:31:21;;;;;;;28.97;16.37;;;9.70;99.90;;;;;;5071953;28;20094;-79
2023/04/24 06:33:48;;;;;;;23.80;15.23;;;9.80;99.90;;;;;;5071912;28;20024;-78
2023/04/24 06:36:14;;;;;;;26.10;13.77;;;9.80;99.90;;;;;;5071947;28;20021;-78
2023/04/24 06:38:40;;;;;;;26.70;15.13;;;9.80;99.90;;;;;;5071705;28;20032;-78
2023/04/24 06:41:05;;;;;;;20.50;12.80;;;9.80;99.90;;;;;;5071280;28;20036;-77
2023/04/24 06:43:31;;;;;;;20.90;13.37;;;9.80;99.90;;;;;;5054962;28;20028;-77
2023/04/24 06:45:58;;;;;;;21.60;13.57;;;9.70;99.90;;;;;;5070463;28;20040;-78
2023/04/24 06:48:25;;;;;;;26.07;15.10;;;9.70;99.90;;;;;;5072911;28;20503;-77
2023/04/24 06:50:51;;;;;;;24.27;14.70;;;9.80;99.90;;;;;;5071642;28;20040;-77
2023/04/24 06:53:17;;;;;;;25.57;14.67;;;9.80;99.90;;;;;;5074502;28;20037;-78
2023/04/24 06:55:45;;;;;;;18.43;11.50;;;9.90;99.90;;;;;;5059144;28;20036;-78
2023/04/24 06:58:11;;;;;;;17.60;10.20;;;9.90;99.90;;;;;;5059462;28;20027;-77
2023/04/24 07:00:37;;;;;;;14.57;9.10;;;9.90;99.90;;;;;;5059338;28;20025;-78
2023/04/24 07:03:05;;;;;;;13.20;8.10;;;9.90;99.90;;;;;;5075575;28;20161;-78
2023/04/24 07:05:31;;;;;;;11.57;5.97;;;9.90;99.90;;;;;;5075778;28;20036;-78
2023/04/24 07:07:58;;;;;;;11.40;6.20;;;9.90;99.90;;;;;;5076601;28;20082;-79
2023/04/24 07:10:24;;;;;;;11.97;5.53;;;9.90;99.90;;;;;;5075387;28;20032;-78
2023/04/24 07:12:50;;;;;;;8.67;4.43;;;9.80;99.90;;;;;;5054489;28;20037;-79
2023/04/24 07:15:16;;;;;;;11.77;5.20;;;9.80;99.90;;;;;;5056748;28;20111;-80
2023/04/24 07:17:44;;;;;;;12.17;6.43;;;9.70;99.90;;;;;;5073621;28;20316;-78
2023/04/24 07:20:11;;;;;;;14.07;6.50;;;9.70;99.90;;;;;;5074663;28;20024;-79
2023/04/24 07:22:38;;;;;;;10.57;5.50;;;9.60;99.90;;;;;;5074644;28;20025;-78
2023/04/24 07:25:04;;;;;;;9.83;4.43;;;9.60;99.90;;;;;;5076417;28;20067;-78
2023/04/24 07:27:30;;;;;;;9.67;3.43;;;9.60;99.90;;;;;;5075007;28;20094;-77
2023/04/24 07:29:56;;;;;;;4.63;1.90;;;9.60;99.90;;;;;;5076482;28;20078;-79
2023/04/24 07:32:22;;;;;;;4.77;1.70;;;9.50;99.90;;;;;;5075005;28;20132;-78
2023/04/24 07:34:48;;;;;;;7.23;2.80;;;9.50;99.90;;;;;;5075089;28;20111;-79
2023/04/24 07:37:13;;;;;;;7.53;2.80;;;9.50;99.90;;;;;;5057068;28;20040;-77
2023/04/24 07:39:41;;;;;;;10.07;4.20;;;9.40;99.90;;;;;;5074593;28;20025;-77
2023/04/24 07:42:06;;;;;;;9.93;4.63;;;9.40;99.90;;;;;;5091782;28;20400;-79
2023/04/24 07:44:32;;;;;;;15.33;6.77;;;9.30;99.90;;;;;;5075162;28;20031;-77
2023/04/24 07:46:58;;;;;;;17.40;8.33;;;9.30;99.90;;;;;;5074782;28;20029;-76
2023/04/24 07:49:23;;;;;;;23.73;10.73;;;9.30;99.90;;;;;;5074747;28;20107;-77
2023/04/24 07:51:50;;;;;;;19.57;10.57;;;9.20;99.90;;;;;;5074801;28;20033;-77
2023/04/24 07:54:15;;;;;;;24.07;12.27;;;9.30;99.90;;;;;;5074726;28;20166;-76
2023/04/24 07:56:42;;;;;;;24.50;13.53;;;9.30;99.90;;;;;;5058158;28;20453;-77
2023/04/24 07:59:12;;;;;;;22.67;12.63;;;9.20;99.90;;;;;;5074081;28;20025;-78
2023/04/24 08:01:38;;;;;;;25.17;13.37;;;9.20;99.90;;;;;;5075507;28;20040;-76
2023/04/24 08:04:03;;;;;;;32.10;15.53;;;9.20;99.90;;;;;;5075302;28;20078;-77
2023/04/24 08:06:30;;;;;;;30.30;16.37;;;9.20;99.90;;;;;;5075820;28;20029;-76
2023/04/24 08:09:00;;;;;;;30.83;16.93;;;9.10;99.90;;;;;;5057658;28;20400;-76
2023/04/24 08:11:26;;;;;;;32.47;16.87;;;9.10;99.90;;;;;;5074363;28;20039;-76
2023/04/24 08:13:52;;;;;;;34.37;17.27;;;9.10;99.90;;;;;;5074243;28;20048;-79
2023/04/24 08:16:17;;;;;;;29.67;16.33;;;9.00;99.90;;;;;;5074301;28;20452;-76
2023/04/24 08:18:43;;;;;;;28.33;17.37;;;9.10;99.90;;;;;;5073700;28;20053;-77
2023/04/24 08:21:09;;;;;;;23.30;14.83;;;8.90;99.90;;;;;;5053788;28;20488;-78
2023/04/24 08:23:34;;;;;;;28.43;16.23;;;8.90;99.90;;;;;;5073314;28;20037;-78
2023/04/24 08:26:00;;;;;;;28.60;15.47;;;8.80;99.90;;;;;;5073589;28;20056;-77
2023/04/24 08:28:25;;;;;;;30.27;16.23;;;8.80;99.90;;;;;;5056976;28;20555;-78
2023/04/24 08:30:54;;;;;;;29.43;16.73;;;8.80;99.90;;;;;;5073511;28;20032;-78
2023/04/24 08:33:23;;;;;;;31.17;16.00;;;8.80;99.90;;;;;;5057340;28;20048;-78
2023/04/24 08:35:49;;;;;;;32.23;16.67;;;8.70;99.90;;;;;;5073504;28;20074;-77
2023/04/24 08:38:15;;;;;;;37.83;17.10;;;8.70;99.90;;;;;;5075152;28;20480;-78
2023/04/24 08:40:41;;;;;;;33.27;16.67;;;8.70;99.90;;;;;;5073695;28;20024;-78
2023/04/24 08:43:08;;;;;;;31.23;17.57;;;8.70;99.90;;;;;;5057016;28;20158;-78
2023/04/24 08:45:34;;;;;;;34.77;17.00;;;8.70;99.90;;;;;;5073924;28;20477;-78
2023/04/24 08:48:00;;;;;;;32.23;19.20;;;8.80;99.90;;;;;;5074896;28;20029;-77
2023/04/24 08:50:26;;;;;;;31.40;18.67;;;8.80;99.90;;;;;;5075017;28;20020;-78
2023/04/24 08:52:56;;;;;;;36.40;19.10;;;8.80;99.90;;;;;;5074794;28;20032;-78
2023/04/24 08:55:24;;;;;;;34.33;18.47;;;8.80;99.90;;;;;;5057526;28;20031;-77
2023/04/24 08:57:55;;;;;;;38.73;18.00;;;8.80;99.90;;;;;;5074659;28;20358;-78
2023/04/24 09:00:22;;;;;;;33.00;14.77;;;8.80;99.90;;;;;;5074759;28;20078;-78
2023/04/24 09:02:49;;;;;;;25.83;10.90;;;8.90;99.90;;;;;;5056758;28;20029;-77
2023/04/24 09:05:18;;;;;;;20.80;8.67;;;8.80;99.90;;;;;;5074649;28;20724;-76
2023/04/24 09:07:49;;;;;;;19.17;7.53;;;8.80;99.90;;;;;;5072463;28;20028;-78
2023/04/24 09:10:15;;;;;;;25.17;8.17;;;8.80;99.90;;;;;;5074595;28;20089;-78
2023/04/24 09:12:43;;;;;;;19.97;7.13;;;8.70;99.90;;;;;;5074383;28;20119;-77
2023/04/24 09:15:10;;;;;;;26.80;8.83;;;8.70;99.90;;;;;;5056337;28;20017;-77
2023/04/24 09:17:36;;;;;;;23.33;8.67;;;8.70;99.90;;;;;;5074153;28;20105;-78
2023/04/24 09:20:02;;;;;;;21.93;8.63;;;8.60;99.90;;;;;;5073189;28;20017;-76
2023/04/24 09:22:30;;;;;;;30.00;8.10;;;8.70;99.90;;;;;;5072908;28;20171;-76
2023/04/24 09:25:06;;;;;;;25.03;8.73;;;8.70;99.90;;;;;;5056097;28;20032;-77
2023/04/24 09:27:35;;;;;;;19.07;7.50;;;8.80;99.90;;;;;;5072901;28;20053;-78
2023/04/24 09:30:03;;;;;;;21.93;8.70;;;8.80;99.90;;;;;;5073028;28;20035;-76
2023/04/24 09:32:29;;;;;;;23.27;7.63;;;8.90;99.90;;;;;;5056134;28;20026;-77
2023/04/24 09:35:14;;;;;;;22.47;6.47;;;8.90;99.90;;;;;;5074035;28;20078;-76
2023/04/24 09:37:45;;;;;;;24.30;6.83;;;9.00;99.90;;;;;;5072894;28;20051;-78
2023/04/24 09:40:23;;;;;;;26.30;4.80;;;9.00;99.90;;;;;;5073510;28;20020;-77
2023/04/24 09:42:53;;;;;;;17.77;4.43;;;9.10;99.90;;;;;;5070674;28;20033;-78
2023/04/24 09:45:20;;;;;;;13.53;4.10;;;9.10;99.90;;;;;;5072194;28;20031;-79
2023/04/24 09:47:46;;;;;;;17.07;3.53;;;9.20;99.90;;;;;;5071951;28;20119;-79
2023/04/24 09:50:16;;;;;;;13.47;3.90;;;9.20;99.90;;;;;;5072495;28;20052;-78
2023/04/24 09:53:01;;;;;;;17.67;3.83;;;9.30;99.90;;;;;;5071443;28;20104;-78
2023/04/24 09:55:27;;;;;;;12.70;3.63;;;9.30;99.90;;;;;;5070252;28;20029;-78
2023/04/24 09:58:12;;;;;;;17.33;3.80;;;9.30;99.90;;;;;;5067490;28;20473;-78
2023/04/24 10:00:37;;;;;;;14.25;3.45;;;9.30;99.90;;;;;;5068616;28;20028;-79
2023/04/24 10:03:05;;;;;;;11.90;3.27;;;9.20;99.90;;;;;;5071092;28;20033;-79
2023/04/24 10:05:33;;;;;;;14.13;2.93;;;9.10;99.90;;;;;;5070096;28;20041;-77
2023/04/24 10:08:01;;;;;;;10.17;2.40;;;9.20;99.90;;;;;;5071409;28;20400;-76
2023/04/24 10:10:27;;;;;;;14.07;3.40;;;9.30;99.90;;;;;;5071089;28;20029;-77
2023/04/24 10:12:54;;;;;;;8.17;2.40;;;9.30;99.90;;;;;;5053201;28;20025;-80
2023/04/24 10:15:21;;;;;;;9.57;3.17;;;9.40;99.90;;;;;;5053110;28;20371;-77
2023/04/24 10:17:53;;;;;;;14.50;2.87;;;9.50;99.90;;;;;;5053093;28;20046;-77
2023/04/24 10:20:24;;;;;;;13.37;2.17;;;9.60;99.90;;;;;;5069655;28;20140;-77
2023/04/24 10:22:51;;;;;;;11.63;3.10;;;9.80;99.90;;;;;;5070866;28;20048;-78
2023/04/24 10:25:22;;;;;;;10.93;2.80;;;10.00;99.90;;;;;;5069533;28;20032;-78
2023/04/24 10:27:49;;;;;;;9.70;2.33;;;10.20;99.90;;;;;;5052996;28;20481;-76
2023/04/24 10:30:15;;;;;;;13.23;2.53;;;10.40;99.90;;;;;;5069602;28;20037;-78
2023/04/24 10:32:42;;;;;;;13.43;3.13;;;10.60;99.90;;;;;;5069178;28;20556;-77
2023/04/24 10:35:08;;;;;;;10.40;2.08;;;10.80;99.90;;;;;;5070817;28;20146;-77
2023/04/24 10:37:38;;;;;;;6.65;1.45;;;11.10;99.90;;;;;;5069046;28;20043;-78
2023/04/24 10:40:07;;;;;;;5.47;1.75;;;11.30;99.90;;;;;;5069715;28;20332;-79
2023/04/24 10:42:33;;;;;;;10.32;1.50;;;11.30;99.90;;;;;;5070730;28;20028;-78
2023/04/24 10:45:01;;;;;;;8.32;2.13;;;11.20;98.90;;;;;;5052956;28;20369;-78
2023/04/24 10:47:27;;;;;;;12.65;2.25;;;11.00;97.60;;;;;;5069334;28;20024;-77
2023/04/24 10:49:53;;;;;;;14.45;1.65;;;10.90;97.60;;;;;;5069208;28;20029;-79
2023/04/24 10:52:20;;;;;;;7.60;1.30;;;10.80;97.40;;;;;;5069405;28;20036;-77
2023/04/24 10:54:47;;;;;;;5.13;1.20;;;10.80;97.70;;;;;;5070634;28;20020;-78
2023/04/24 10:57:22;;;;;;;9.55;1.50;;;10.80;97.30;;;;;;5069614;28;20012;-78
2023/04/24 11:00:08;;;;;;;11.23;1.42;;;10.80;96.00;;;;;;5070337;28;20071;-78
2023/04/24 11:02:38;;;;;;;3.90;1.13;;;10.90;97.00;;;;;;5070735;28;20127;-78
2023/04/24 11:05:05;;;;;;;7.05;1.45;;;10.80;95.90;;;;;;5052945;28;20032;-79
2023/04/24 11:08:09;;;;;;;6.72;1.33;;;10.60;95.10;;;;;;5069637;28;20376;-77
2023/04/24 11:10:37;;;;;;;;;;;10.40;95.60;;;;;;5071084;28;20148;-77
2023/04/24 11:13:03;;;;;;;8.60;1.30;;;10.30;96.00;;;;;;5070594;28;19908;-78
2023/04/24 11:15:29;;;;;;;8.75;1.17;;;10.20;96.80;;;;;;5069318;28;20438;-77
2023/04/24 11:17:56;;;;;;;5.30;0.90;;;10.20;97.60;;;;;;5069024;28;20047;-78
2023/04/24 11:20:25;;;;;;;5.70;1.00;;;10.30;97.30;;;;;;5052909;28;20020;-78
2023/04/24 11:22:54;;;;;;;4.53;0.90;;;10.30;97.00;;;;;;5069224;28;20017;-79
2023/04/24 11:25:22;;;;;;;6.73;0.80;;;10.40;97.20;;;;;;5069178;28;20027;-77
2023/04/24 11:27:49;;;;;;;4.17;0.83;;;10.40;96.70;;;;;;5069145;28;20024;-77
2023/04/24 11:30:20;;;;;;;4.80;1.00;;;10.50;97.10;;;;;;5069032;28;20017;-77
2023/04/24 11:32:51;;;;;;;6.53;0.57;;;10.50;96.50;;;;;;5065713;28;20041;-75
2023/04/24 11:35:28;;;;;;;2.00;0.40;;;10.60;96.10;;;;;;5069102;28;20033;-77
2023/04/24 11:37:54;;;;;;;4.40;0.60;;;10.50;96.00;;;;;;5068989;28;20464;-76
2023/04/24 11:40:25;;;;;;;3.17;0.50;;;10.50;96.20;;;;;;5072133;28;20051;-77
2023/04/24 11:42:52;;;;;;;3.38;0.50;;;10.70;96.80;;;;;;5072819;28;20027;-78
2023/04/24 11:45:23;;;;;;;3.53;0.70;;;10.90;97.20;;;;;;5056017;28;20040;-78
2023/04/24 11:47:50;;;;;;;2.15;0.47;;;11.40;97.30;;;;;;5072276;28;20034;-78
2023/04/24 11:50:18;;;;;;;3.58;0.50;;;11.70;96.10;;;;;;5074035;28;20055;-79
2023/04/24 11:52:46;;;;;;;5.10;0.65;;;11.70;95.00;;;;;;5072416;28;20020;-81
2023/04/24 11:55:14;;;;;;;4.53;0.60;;;11.70;94.50;;;;;;5073894;28;20095;-75
2023/04/24 11:57:44;;;;;;;2.40;0.40;;;11.70;93.90;;;;;;5072643;28;20029;-78
2023/04/24 12:00:18;;;;;;;5.72;0.45;;;11.50;92.90;;;;;;5065684;28;20376;-76
2023/04/24 12:02:44;;;;;;;2.80;0.70;;;11.40;92.60;;;;;;5072751;28;20028;-75
2023/04/24 12:05:22;;;;;;;4.25;0.47;;;11.20;93.10;;;;;;5071271;28;20124;-75
2023/04/24 12:07:49;;;;;;;4.55;0.60;;;11.10;93.90;;;;;;5073611;28;20020;-78
2023/04/24 12:10:19;;;;;;;3.55;1.05;;;11.10;94.80;;;;;;5073626;28;20020;-78
2023/04/24 12:12:46;;;;;;;2.00;0.40;;;11.00;95.20;;;;;;5073520;28;20492;-77
2023/04/24 12:15:12;;;;;;;2.38;0.47;;;10.90;95.20;;;;;;5072393;28;20029;-75
2023/04/24 12:17:41;;;;;;;4.80;0.65;;;10.80;95.50;;;;;;5055272;28;20485;-77
2023/04/24 12:20:08;;;;;;;6.95;0.85;;;10.70;96.40;;;;;;5072758;28;20013;-76
2023/04/24 12:22:47;;;;;;;4.67;0.70;;;10.60;96.70;;;;;;5073550;28;20484;-80
2023/04/24 12:25:18;;;;;;;5.67;0.97;;;10.50;97.10;;;;;;5072310;28;20029;-77
2023/04/24 12:27:45;;;;;;;2.00;0.50;;;10.40;97.30;;;;;;5073354;28;20053;-77
2023/04/24 12:30:16;;;;;;;4.95;0.85;;;10.40;97.40;;;;;;5055262;28;20025;-78
2023/04/24 12:32:49;;;;;;;6.23;0.80;;;10.50;97.50;;;;;;5072309;28;20035;-76
2023/04/24 12:35:23;;;;;;;6.10;0.70;;;10.60;97.10;;;;;;5072020;28;20082;-82
2023/04/24 12:37:49;;;;;;;;;;;10.80;96.80;;;;;;5073788;28;20031;-83
2023/04/24 12:40:15;;;;;;;4.25;0.60;;;10.80;96.40;;;;;;5072228;28;19912;-82
2023/04/24 12:42:49;;;;;;;3.00;0.60;;;10.90;96.40;;;;;;5073179;28;20107;-82